Time;durP1;ratioP1;P1;durP2;ratioP2;P2;SDS_P1;SDS_P2;PMS_P1;PMS_P2;Temp;Humidity;BMP_temperature;BMP_pressure;BME280_temperature;BME280_humidity;BME280_pressure;Samples;Min_cycle;Max_cycle;Signal;HPM_P1;HPM_P2
2022/07/11 00:01:48;;;;;;;18.35;10.15;;;;;;;;;;3367850;42;20099;-59
2022/07/11 00:04:14;;;;;;;18.47;10.60;;;;;;;;;;3367932;42;20086;-59
2022/07/11 00:06:40;;;;;;;20.63;10.48;;;;;;;;;;3353740;42;20096;-59
2022/07/11 00:09:06;;;;;;;16.10;10.18;;;;;;;;;;3357951;42;20554;-61
2022/07/11 00:11:32;;;;;;;16.65;10.68;;;;;;;;;;3368044;42;20080;-59
2022/07/11 00:13:58;;;;;;;16.75;10.52;;;;;;;;;;3358913;42;20084;-59
2022/07/11 00:16:24;;;;;;;19.67;10.27;;;;;;;;;;3367308;42;20143;-57
2022/07/11 00:18:50;;;;;;;16.48;10.68;;;;;;;;;;3368015;42;20573;-57
2022/07/11 00:21:16;;;;;;;19.02;11.05;;;;;;;;;;3367619;42;20241;-58
2022/07/11 00:23:43;;;;;;;18.58;11.02;;;;;;;;;;3368566;42;20570;-63
2022/07/11 00:26:09;;;;;;;18.27;10.70;;;;;;;;;;3367532;42;20092;-61
2022/07/11 00:28:35;;;;;;;16.83;10.30;;;;;;;;;;3368097;42;20536;-61
2022/07/11 00:31:01;;;;;;;17.05;10.25;;;;;;;;;;3362618;42;20095;-55
2022/07/11 00:33:27;;;;;;;17.27;10.30;;;;;;;;;;3365588;42;20182;-59
2022/07/11 00:35:53;;;;;;;17.10;10.90;;;;;;;;;;3367621;42;20103;-59
2022/07/11 00:38:19;;;;;;;16.47;10.50;;;;;;;;;;3363712;42;20106;-58
2022/07/11 00:40:44;;;;;;;17.23;10.05;;;;;;;;;;3367861;42;20095;-59
2022/07/11 00:43:10;;;;;;;17.17;10.05;;;;;;;;;;3367327;42;20564;-58
2022/07/11 00:45:36;;;;;;;18.23;10.40;;;;;;;;;;3367510;42;20088;-61
2022/07/11 00:48:02;;;;;;;15.05;10.23;;;;;;;;;;3369473;42;20102;-57
2022/07/11 00:50:28;;;;;;;16.10;10.18;;;;;;;;;;3369814;42;20100;-59
2022/07/11 00:52:55;;;;;;;15.07;9.85;;;;;;;;;;3370365;42;20154;-58
2022/07/11 00:55:21;;;;;;;16.03;9.63;;;;;;;;;;3360377;42;20576;-58
2022/07/11 00:57:47;;;;;;;14.93;9.60;;;;;;;;;;3362749;42;20686;-59
2022/07/11 01:00:13;;;;;;;14.13;9.43;;;;;;;;;;3367013;42;20075;-59
2022/07/11 01:02:39;;;;;;;15.10;8.75;;;;;;;;;;3358925;42;20091;-58
2022/07/11 01:05:05;;;;;;;14.35;8.77;;;;;;;;;;3358542;42;20094;-59
2022/07/11 01:07:32;;;;;;;13.53;8.50;;;;;;;;;;3368423;42;20095;-60
2022/07/11 01:09:58;;;;;;;14.52;8.77;;;;;;;;;;3367539;42;20159;-61
2022/07/11 01:12:24;;;;;;;14.02;8.57;;;;;;;;;;3355218;42;20509;-59
2022/07/11 01:14:57;;;;;;;13.50;8.93;;;;;;;;;;3352401;42;20195;-58
2022/07/11 01:17:23;;;;;;;14.05;8.73;;;;;;;;;;3367410;42;20400;-61
2022/07/11 01:19:49;;;;;;;12.50;7.90;;;;;;;;;;3358456;42;20548;-58
2022/07/11 01:22:15;;;;;;;13.65;8.10;;;;;;;;;;3370255;42;20100;-59
2022/07/11 01:24:42;;;;;;;11.95;8.10;;;;;;;;;;3354468;42;20095;-60
2022/07/11 01:27:08;;;;;;;12.52;8.10;;;;;;;;;;3355943;42;20600;-60
2022/07/11 01:29:34;;;;;;;12.37;7.60;;;;;;;;;;3367641;42;20101;-58
2022/07/11 01:32:00;;;;;;;13.57;8.02;;;;;;;;;;3358116;42;20159;-58
2022/07/11 01:34:26;;;;;;;11.52;7.63;;;;;;;;;;3367284;42;20103;-57
2022/07/11 01:36:52;;;;;;;11.35;7.55;;;;;;;;;;3368252;42;20115;-57
2022/07/11 01:39:18;;;;;;;12.27;7.83;;;;;;;;;;3367225;42;20095;-58
2022/07/11 01:41:44;;;;;;;13.68;7.75;;;;;;;;;;3367213;42;20151;-59
2022/07/11 01:44:10;;;;;;;11.68;7.57;;;;;;;;;;3367194;42;20095;-58
2022/07/11 01:46:36;;;;;;;12.13;7.82;;;;;;;;;;3367044;42;20147;-58
2022/07/11 01:49:02;;;;;;;12.13;7.70;;;;;;;;;;3367117;42;20090;-57
2022/07/11 01:51:28;;;;;;;12.25;7.53;;;;;;;;;;3366650;42;20099;-59
2022/07/11 01:53:55;;;;;;;13.93;7.97;;;;;;;;;;3367095;42;20787;-57
2022/07/11 01:56:24;;;;;;;13.75;8.05;;;;;;;;;;3358209;42;20084;-56
2022/07/11 01:58:50;;;;;;;12.13;7.57;;;;;;;;;;3367217;42;20096;-57
2022/07/11 02:01:16;;;;;;;11.80;7.32;;;;;;;;;;3367424;42;20505;-58
2022/07/11 02:03:42;;;;;;;12.02;7.60;;;;;;;;;;3367859;42;20670;-58
2022/07/11 02:06:08;;;;;;;12.27;7.47;;;;;;;;;;3365910;42;20099;-58
2022/07/11 02:08:34;;;;;;;10.88;7.22;;;;;;;;;;3364090;42;20181;-57
2022/07/11 02:11:00;;;;;;;10.17;7.00;;;;;;;;;;3360068;42;20154;-60
2022/07/11 02:13:26;;;;;;;11.73;7.53;;;;;;;;;;3366842;42;20585;-58
2022/07/11 02:15:53;;;;;;;11.40;7.05;;;;;;;;;;3367170;42;20087;-57
2022/07/11 02:18:19;;;;;;;10.77;6.97;;;;;;;;;;3360446;42;20112;-57
2022/07/11 02:20:51;;;;;;;11.55;7.10;;;;;;;;;;3358523;42;20096;-58
2022/07/11 02:23:17;;;;;;;11.87;7.30;;;;;;;;;;3347578;42;20129;-57
2022/07/11 02:25:43;;;;;;;11.20;7.00;;;;;;;;;;3367257;42;20158;-59
2022/07/11 02:28:10;;;;;;;10.93;7.45;;;;;;;;;;3367089;42;20092;-60
2022/07/11 02:30:36;;;;;;;10.90;6.80;;;;;;;;;;3357856;42;20196;-57
2022/07/11 02:33:03;;;;;;;11.07;7.05;;;;;;;;;;3366804;42;20565;-59
2022/07/11 02:35:29;;;;;;;11.87;7.57;;;;;;;;;;3366189;42;20107;-60
2022/07/11 02:37:55;;;;;;;10.98;7.35;;;;;;;;;;3358721;42;20165;-57
2022/07/11 02:40:21;;;;;;;13.32;6.70;;;;;;;;;;3366492;42;20087;-58
2022/07/11 02:42:47;;;;;;;9.68;6.97;;;;;;;;;;3366321;42;20091;-58
2022/07/11 02:45:13;;;;;;;11.47;7.27;;;;;;;;;;3349728;42;20105;-57
2022/07/11 02:47:39;;;;;;;12.68;7.72;;;;;;;;;;3365558;42;20143;-57
2022/07/11 02:50:09;;;;;;;15.50;7.55;;;;;;;;;;3350987;42;20088;-60
2022/07/11 02:52:36;;;;;;;12.98;7.20;;;;;;;;;;3358107;42;20139;-57
2022/07/11 02:55:04;;;;;;;13.05;7.07;;;;;;;;;;3351951;42;20655;-57
2022/07/11 02:57:30;;;;;;;12.47;7.40;;;;;;;;;;3356516;42;20106;-57
2022/07/11 02:59:56;;;;;;;12.80;7.28;;;;;;;;;;3366984;42;20131;-57
2022/07/11 03:02:22;;;;;;;10.48;6.65;;;;;;;;;;3366911;42;20084;-59
2022/07/11 03:04:48;;;;;;;10.45;7.13;;;;;;;;;;3352541;42;20095;-57
2022/07/11 03:07:15;;;;;;;10.97;6.47;;;;;;;;;;3352807;42;20227;-57
2022/07/11 03:09:41;;;;;;;11.18;6.88;;;;;;;;;;3356906;42;20114;-60
2022/07/11 03:12:07;;;;;;;11.80;7.10;;;;;;;;;;3341329;42;20096;-59
2022/07/11 03:14:33;;;;;;;10.07;7.10;;;;;;;;;;3364830;42;20107;-57
2022/07/11 03:16:59;;;;;;;10.63;6.77;;;;;;;;;;3366966;42;20096;-57
2022/07/11 03:19:25;;;;;;;11.32;6.90;;;;;;;;;;3366783;42;20091;-57
2022/07/11 03:21:52;;;;;;;11.30;7.20;;;;;;;;;;3366426;42;20516;-60
2022/07/11 03:24:18;;;;;;;11.38;6.75;;;;;;;;;;3349803;42;20151;-60
2022/07/11 03:26:44;;;;;;;10.90;7.30;;;;;;;;;;3367414;42;20088;-60
2022/07/11 03:29:10;;;;;;;12.18;7.05;;;;;;;;;;3366675;42;20084;-58
2022/07/11 03:31:35;;;;;;;10.50;7.00;;;;;;;;;;3351148;42;20571;-59
2022/07/11 03:34:01;;;;;;;9.43;6.60;;;;;;;;;;3366681;42;20146;-58
2022/07/11 03:36:28;;;;;;;11.43;6.93;;;;;;;;;;3364997;42;20161;-61
2022/07/11 03:38:54;;;;;;;10.65;7.10;;;;;;;;;;3366950;42;20594;-57
2022/07/11 03:41:19;;;;;;;14.13;7.53;;;;;;;;;;3366949;42;20531;-60
2022/07/11 03:43:45;;;;;;;11.87;7.23;;;;;;;;;;3368734;42;20602;-58
2022/07/11 03:46:11;;;;;;;11.48;6.82;;;;;;;;;;3368318;42;20106;-57
2022/07/11 03:48:37;;;;;;;10.60;7.00;;;;;;;;;;3366670;42;20574;-62
2022/07/11 03:51:03;;;;;;;10.95;7.10;;;;;;;;;;3362595;42;20159;-58
2022/07/11 03:53:29;;;;;;;12.87;7.63;;;;;;;;;;3367888;42;20103;-58
2022/07/11 03:55:55;;;;;;;11.02;7.25;;;;;;;;;;3368183;42;20088;-57
2022/07/11 03:58:21;;;;;;;11.10;7.78;;;;;;;;;;3359684;42;20100;-61
2022/07/11 04:00:47;;;;;;;14.27;7.60;;;;;;;;;;3367551;42;20122;-58
2022/07/11 04:03:13;;;;;;;10.13;7.50;;;;;;;;;;3364726;42;20309;-59
2022/07/11 04:05:39;;;;;;;13.68;7.28;;;;;;;;;;3369637;42;20106;-59
2022/07/11 04:08:05;;;;;;;11.57;7.82;;;;;;;;;;3367409;42;20598;-60
2022/07/11 04:10:31;;;;;;;13.20;7.45;;;;;;;;;;3369211;42;20166;-57
2022/07/11 04:12:57;;;;;;;13.20;7.73;;;;;;;;;;3368290;42;20090;-60
2022/07/11 04:15:23;;;;;;;14.20;8.95;;;;;;;;;;3368513;42;20139;-58
2022/07/11 04:17:49;;;;;;;14.52;8.98;;;;;;;;;;3368687;42;20143;-58
2022/07/11 04:20:15;;;;;;;14.85;9.20;;;;;;;;;;3368490;42;20111;-59
2022/07/11 04:22:43;;;;;;;14.30;9.10;;;;;;;;;;3367667;42;20114;-61
2022/07/11 04:25:09;;;;;;;17.05;9.52;;;;;;;;;;3369209;42;20463;-61
2022/07/11 04:27:35;;;;;;;15.65;9.32;;;;;;;;;;3368457;42;20645;-58
2022/07/11 04:30:01;;;;;;;15.05;9.35;;;;;;;;;;3356441;42;20094;-57
2022/07/11 04:32:26;;;;;;;17.90;9.27;;;;;;;;;;3367969;42;20076;-59
2022/07/11 04:34:53;;;;;;;14.00;8.93;;;;;;;;;;3367918;42;20083;-59
2022/07/11 04:37:19;;;;;;;13.05;8.82;;;;;;;;;;3368296;42;20104;-60
2022/07/11 04:39:46;;;;;;;15.53;8.60;;;;;;;;;;3367473;42;20162;-61
2022/07/11 04:42:12;;;;;;;17.25;8.95;;;;;;;;;;3350201;42;20151;-60
2022/07/11 04:44:38;;;;;;;17.13;8.80;;;;;;;;;;3365647;42;20091;-58
2022/07/11 04:47:04;;;;;;;13.13;8.77;;;;;;;;;;3369556;42;20110;-57
2022/07/11 04:49:30;;;;;;;13.27;8.77;;;;;;;;;;3372027;42;20222;-58
2022/07/11 04:51:57;;;;;;;12.88;8.93;;;;;;;;;;3352024;42;20628;-58
2022/07/11 04:54:23;;;;;;;14.10;8.73;;;;;;;;;;3367504;42;20664;-57
2022/07/11 04:56:49;;;;;;;13.25;9.15;;;;;;;;;;3368131;42;20657;-57
2022/07/11 04:59:15;;;;;;;13.15;9.30;;;;;;;;;;3367169;42;20099;-60
2022/07/11 05:01:41;;;;;;;14.90;9.32;;;;;;;;;;3367649;42;20132;-58
2022/07/11 05:04:07;;;;;;;13.93;9.55;;;;;;;;;;3367791;42;20118;-57
2022/07/11 05:06:34;;;;;;;12.23;10.25;;;;;;;;;;3367325;42;20286;-58
2022/07/11 05:08:59;;;;;;;12.77;9.90;;;;;;;;;;3357754;42;20211;-58
2022/07/11 05:11:26;;;;;;;14.88;9.25;;;;;;;;;;3367897;42;20510;-56
2022/07/11 05:13:51;;;;;;;13.00;10.10;;;;;;;;;;3367085;42;20103;-61
2022/07/11 05:16:19;;;;;;;14.68;9.68;;;;;;;;;;3367330;42;20146;-56
2022/07/11 05:18:45;;;;;;;15.20;9.63;;;;;;;;;;3367849;42;20574;-58
2022/07/11 05:21:11;;;;;;;14.30;10.10;;;;;;;;;;3366370;42;20546;-60
2022/07/11 05:23:37;;;;;;;13.32;10.13;;;;;;;;;;3366303;42;20158;-55
2022/07/11 05:26:04;;;;;;;15.23;10.98;;;;;;;;;;3370279;42;20102;-55
2022/07/11 05:28:30;;;;;;;15.30;10.33;;;;;;;;;;3343279;42;20100;-57
2022/07/11 05:30:56;;;;;;;13.93;10.27;;;;;;;;;;3365220;42;20088;-54
2022/07/11 05:33:22;;;;;;;14.50;10.38;;;;;;;;;;3367615;42;20558;-55
2022/07/11 05:35:48;;;;;;;15.05;10.02;;;;;;;;;;3368091;42;20107;-57
2022/07/11 05:38:14;;;;;;;13.45;10.23;;;;;;;;;;3367197;42;20106;-55
2022/07/11 05:40:40;;;;;;;14.30;10.68;;;;;;;;;;3366882;42;20098;-56
2022/07/11 05:43:07;;;;;;;16.98;10.38;;;;;;;;;;3367722;42;20139;-51
2022/07/11 05:45:33;;;;;;;13.73;10.63;;;;;;;;;;3363390;42;20088;-56
2022/07/11 05:47:59;;;;;;;14.32;10.10;;;;;;;;;;3367538;42;20142;-57
2022/07/11 05:50:25;;;;;;;12.80;9.88;;;;;;;;;;3367381;42;20092;-56
2022/07/11 05:52:51;;;;;;;14.20;10.43;;;;;;;;;;3367199;42;20127;-56
2022/07/11 05:55:17;;;;;;;15.23;10.00;;;;;;;;;;3367086;42;20573;-56
2022/07/11 05:57:43;;;;;;;13.68;10.27;;;;;;;;;;3368644;42;20099;-56
2022/07/11 06:00:09;;;;;;;12.60;10.05;;;;;;;;;;3368620;42;20107;-58
2022/07/11 06:02:35;;;;;;;14.10;9.90;;;;;;;;;;3369866;42;20588;-55
2022/07/11 06:05:01;;;;;;;13.73;9.83;;;;;;;;;;3370918;42;20084;-54
2022/07/11 06:10:12;;;;;;;14.07;10.10;;;;;;;;;;3370738;42;20114;-56
2022/07/11 06:12:38;;;;;;;12.68;9.80;;;;;;;;;;3361506;42;20088;-56
2022/07/11 06:15:04;;;;;;;13.13;9.80;;;;;;;;;;3367534;42;20138;-58
2022/07/11 06:17:30;;;;;;;14.60;9.38;;;;;;;;;;3366766;42;20505;-54
2022/07/11 06:19:56;;;;;;;12.95;9.35;;;;;;;;;;3372908;42;20575;-64
2022/07/11 06:22:22;;;;;;;13.32;9.43;;;;;;;;;;3366819;42;20517;-57
2022/07/11 06:24:48;;;;;;;12.83;9.23;;;;;;;;;;3366881;42;20171;-58
2022/07/11 06:27:14;;;;;;;12.43;9.30;;;;;;;;;;3367177;42;20107;-54
2022/07/11 06:29:40;;;;;;;11.63;8.82;;;;;;;;;;3361034;42;20098;-58
2022/07/11 06:32:06;;;;;;;15.23;9.18;;;;;;;;;;3366948;42;20155;-60
2022/07/11 06:34:32;;;;;;;12.48;8.90;;;;;;;;;;3367007;42;20174;-58
2022/07/11 06:36:59;;;;;;;14.48;9.23;;;;;;;;;;3367060;42;20098;-65
2022/07/11 06:39:25;;;;;;;14.48;9.30;;;;;;;;;;3365888;42;20154;-58
2022/07/11 06:41:51;;;;;;;13.70;9.57;;;;;;;;;;3367121;42;20111;-56
2022/07/11 06:44:17;;;;;;;12.20;8.73;;;;;;;;;;3366372;42;20079;-58
2022/07/11 06:46:43;;;;;;;13.13;9.15;;;;;;;;;;3365412;42;20092;-55
2022/07/11 06:49:12;;;;;;;12.13;8.75;;;;;;;;;;3363654;42;20586;-57
2022/07/11 06:51:39;;;;;;;13.57;9.35;;;;;;;;;;3364809;42;20630;-57
2022/07/11 06:54:05;;;;;;;12.03;9.40;;;;;;;;;;3366980;42;20092;-59
2022/07/11 06:56:31;;;;;;;11.38;8.93;;;;;;;;;;3351629;42;20177;-57
2022/07/11 06:58:57;;;;;;;14.07;9.15;;;;;;;;;;3367468;42;20099;-60
2022/07/11 07:01:23;;;;;;;11.15;8.85;;;;;;;;;;3369763;42;20087;-58
2022/07/11 07:03:49;;;;;;;12.67;9.17;;;;;;;;;;3366768;42;20566;-61
2022/07/11 07:06:15;;;;;;;12.40;9.07;;;;;;;;;;3366199;42;20649;-58
2022/07/11 07:08:41;;;;;;;12.90;8.82;;;;;;;;;;3358963;42;20150;-58
2022/07/11 07:11:07;;;;;;;12.83;9.20;;;;;;;;;;3357928;42;20111;-58
2022/07/11 07:13:32;;;;;;;12.73;8.50;;;;;;;;;;3366736;42;20092;-57
2022/07/11 07:15:58;;;;;;;12.82;8.60;;;;;;;;;;3366442;42;20254;-58
2022/07/11 07:18:25;;;;;;;11.10;8.20;;;;;;;;;;3366458;42;20169;-57
2022/07/11 07:20:51;;;;;;;12.00;8.60;;;;;;;;;;3366719;42;20087;-57
2022/07/11 07:23:18;;;;;;;12.65;9.20;;;;;;;;;;3366549;42;20094;-57
2022/07/11 07:25:44;;;;;;;12.20;8.25;;;;;;;;;;3357350;42;20569;-61
2022/07/11 07:28:10;;;;;;;13.05;8.55;;;;;;;;;;3357101;42;20086;-58
2022/07/11 07:30:36;;;;;;;13.40;8.70;;;;;;;;;;3367064;42;20083;-58
2022/07/11 07:33:02;;;;;;;12.73;8.07;;;;;;;;;;3366522;42;20190;-58
2022/07/11 07:35:29;;;;;;;12.15;8.38;;;;;;;;;;3369185;42;20581;-59
2022/07/11 07:37:54;;;;;;;11.35;8.30;;;;;;;;;;3366718;42;20098;-58
2022/07/11 07:40:21;;;;;;;12.80;8.25;;;;;;;;;;3356886;42;20084;-57
2022/07/11 07:42:47;;;;;;;12.70;8.03;;;;;;;;;;3357000;42;20127;-59
2022/07/11 07:45:14;;;;;;;11.82;7.85;;;;;;;;;;3366580;42;20509;-58
2022/07/11 07:47:40;;;;;;;10.82;7.63;;;;;;;;;;3365929;42;20127;-57
2022/07/11 07:50:07;;;;;;;14.88;7.70;;;;;;;;;;3366698;42;20098;-57
2022/07/11 07:52:33;;;;;;;10.45;7.53;;;;;;;;;;3366830;42;20139;-59
2022/07/11 07:54:59;;;;;;;10.83;7.20;;;;;;;;;;3366487;42;20099;-61
2022/07/11 07:57:25;;;;;;;10.55;7.47;;;;;;;;;;3352737;42;20096;-58
2022/07/11 08:01:34;;;;;;;11.10;7.50;;;;;;;;;;3366753;42;20165;-59
2022/07/11 08:02:37;;;;;;;11.68;7.78;;;;;;;;;;3356985;42;20501;-62
2022/07/11 08:05:03;;;;;;;11.75;7.35;;;;;;;;;;3366839;42;20088;-62
2022/07/11 08:07:29;;;;;;;11.52;7.20;;;;;;;;;;3366383;42;20091;-57
2022/07/11 08:09:55;;;;;;;10.82;6.60;;;;;;;;;;3349698;42;20119;-57
2022/07/11 08:12:21;;;;;;;10.80;6.95;;;;;;;;;;3366569;42;20564;-59
2022/07/11 08:14:47;;;;;;;10.18;6.60;;;;;;;;;;3366408;42;20094;-57
2022/07/11 08:17:13;;;;;;;9.23;6.33;;;;;;;;;;3365516;42;20154;-57
2022/07/11 08:19:39;;;;;;;9.93;6.95;;;;;;;;;;3368228;42;20096;-58
2022/07/11 08:22:05;;;;;;;10.27;7.20;;;;;;;;;;3368494;42;20096;-56
2022/07/11 08:24:31;;;;;;;9.32;7.00;;;;;;;;;;3368173;42;20182;-59
2022/07/11 08:26:57;;;;;;;9.07;6.07;;;;;;;;;;3368319;42;20092;-58
2022/07/11 08:29:23;;;;;;;9.63;7.00;;;;;;;;;;3368175;42;20100;-58
2022/07/11 08:31:49;;;;;;;12.52;6.72;;;;;;;;;;3368602;42;20688;-58
2022/07/11 08:34:15;;;;;;;11.17;7.30;;;;;;;;;;3367724;42;20731;-63
2022/07/11 08:36:41;;;;;;;11.77;7.30;;;;;;;;;;3370657;42;20287;-62
2022/07/11 08:39:07;;;;;;;10.55;7.80;;;;;;;;;;3370542;42;20102;-60
2022/07/11 08:41:33;;;;;;;10.80;7.70;;;;;;;;;;3370015;42;20079;-61
2022/07/11 08:43:59;;;;;;;11.57;7.63;;;;;;;;;;3352256;42;20079;-59
2022/07/11 08:46:26;;;;;;;10.45;7.53;;;;;;;;;;3352005;42;20103;-60
2022/07/11 08:48:52;;;;;;;11.88;8.25;;;;;;;;;;3358423;42;20547;-59
2022/07/11 08:51:20;;;;;;;11.30;8.18;;;;;;;;;;3365591;42;20563;-58
2022/07/11 08:53:46;;;;;;;11.73;8.10;;;;;;;;;;3367846;42;20096;-58
2022/07/11 08:56:17;;;;;;;12.90;8.10;;;;;;;;;;3359161;42;20104;-61
2022/07/11 08:58:44;;;;;;;10.07;7.68;;;;;;;;;;3359193;42;20099;-59
2022/07/11 09:01:11;;;;;;;13.52;8.40;;;;;;;;;;3367835;42;20555;-59
2022/07/11 09:03:36;;;;;;;10.95;7.43;;;;;;;;;;3352079;42;20584;-58
2022/07/11 09:06:02;;;;;;;10.40;7.60;;;;;;;;;;3367530;42;20131;-58
2022/07/11 09:08:29;;;;;;;11.27;7.45;;;;;;;;;;3367658;42;20143;-58
2022/07/11 09:10:55;;;;;;;11.68;7.50;;;;;;;;;;3354902;42;20743;-61
2022/07/11 09:13:21;;;;;;;10.38;6.43;;;;;;;;;;3367865;42;20096;-63
2022/07/11 09:15:50;;;;;;;8.77;5.70;;;;;;;;;;3351320;42;20147;-60
2022/07/11 09:18:26;;;;;;;9.43;6.10;;;;;;;;;;3355693;42;20519;-59
2022/07/11 09:26:34;;;;;;;11.82;6.78;;;;;;;;;;3360199;42;20176;-61
2022/07/11 09:29:04;;;;;;;10.90;6.60;;;;;;;;;;3366836;42;20539;-59
2022/07/11 09:31:32;;;;;;;11.43;6.70;;;;;;;;;;3366434;42;20539;-60
2022/07/11 09:34:08;;;;;;;10.23;6.55;;;;;;;;;;3355105;42;20502;-60
2022/07/11 09:36:38;;;;;;;11.15;6.90;;;;;;;;;;3367081;42;20092;-57
2022/07/11 09:39:05;;;;;;;9.85;6.75;;;;;;;;;;3362359;42;20594;-61
2022/07/11 09:41:33;;;;;;;10.07;6.30;;;;;;;;;;3367218;42;20100;-61
2022/07/11 09:44:09;;;;;;;10.03;6.70;;;;;;;;;;3367521;42;20147;-58
2022/07/11 09:46:36;;;;;;;12.07;6.80;;;;;;;;;;3362015;42;20200;-60
2022/07/11 09:49:02;;;;;;;9.80;6.80;;;;;;;;;;3367790;42;20099;-61
2022/07/11 09:51:28;;;;;;;11.90;7.30;;;;;;;;;;3367342;42;20167;-63
2022/07/11 09:53:57;;;;;;;11.60;6.80;;;;;;;;;;3357972;42;20907;-60
2022/07/11 09:56:43;;;;;;;10.07;5.90;;;;;;;;;;3358394;42;20088;-60
2022/07/11 09:59:10;;;;;;;9.98;6.25;;;;;;;;;;3366881;42;20099;-61
2022/07/11 10:01:37;;;;;;;9.95;5.90;;;;;;;;;;3367164;42;20112;-60
2022/07/11 10:04:05;;;;;;;9.30;6.45;;;;;;;;;;3366808;42;20162;-63
2022/07/11 10:06:31;;;;;;;10.32;6.38;;;;;;;;;;3358005;42;20103;-55
2022/07/11 10:08:57;;;;;;;23.90;6.77;;;;;;;;;;3358183;42;20080;-59
2022/07/11 10:11:23;;;;;;;10.75;6.32;;;;;;;;;;3366939;42;20102;-59
2022/07/11 10:13:49;;;;;;;9.70;6.20;;;;;;;;;;3366762;42;20088;-58
2022/07/11 10:16:35;;;;;;;8.50;5.88;;;;;;;;;;3367174;42;20169;-61
2022/07/11 10:19:34;;;;;;;8.87;5.73;;;;;;;;;;3339445;42;20136;-58
2022/07/11 10:22:21;;;;;;;9.60;5.97;;;;;;;;;;3351239;42;20084;-62
2022/07/11 10:25:27;;;;;;;10.30;5.68;;;;;;;;;;3363370;42;20545;-62
2022/07/11 10:28:04;;;;;;;8.88;5.90;;;;;;;;;;3319594;42;20098;-61
2022/07/11 10:30:47;;;;;;;8.18;5.28;;;;;;;;;;3352701;42;20087;-62
2022/07/11 10:33:14;;;;;;;8.90;5.90;;;;;;;;;;3366847;42;20088;-59
2022/07/11 10:35:47;;;;;;;10.90;6.15;;;;;;;;;;3353829;42;20364;-59
2022/07/11 10:38:14;;;;;;;9.20;5.65;;;;;;;;;;3354724;42;20483;-58
2022/07/11 10:40:40;;;;;;;9.10;6.30;;;;;;;;;;3366134;42;20135;-61
2022/07/11 10:43:06;;;;;;;11.37;6.50;;;;;;;;;;3366397;42;20126;-61
2022/07/11 10:45:49;;;;;;;9.37;6.17;;;;;;;;;;3366584;42;20271;-60
2022/07/11 10:48:15;;;;;;;10.25;5.97;;;;;;;;;;3366480;42;20098;-61
2022/07/11 10:50:41;;;;;;;10.27;6.00;;;;;;;;;;3368924;42;20474;-57
2022/07/11 10:53:09;;;;;;;9.80;6.30;;;;;;;;;;3353561;42;20076;-61
2022/07/11 10:55:37;;;;;;;10.48;6.15;;;;;;;;;;3361824;42;20099;-58
2022/07/11 10:58:31;;;;;;;11.38;6.28;;;;;;;;;;3360292;42;20100;-61
2022/07/11 11:01:15;;;;;;;10.23;6.15;;;;;;;;;;3369287;42;20785;-61
2022/07/11 11:03:42;;;;;;;10.43;5.80;;;;;;;;;;3359653;42;20150;-58
2022/07/11 11:06:08;;;;;;;8.53;5.67;;;;;;;;;;3370020;42;20142;-62
2022/07/11 11:08:40;;;;;;;10.15;6.15;;;;;;;;;;3368273;42;20151;-59
2022/07/11 11:11:21;;;;;;;8.65;6.00;;;;;;;;;;3366082;42;20112;-59
2022/07/11 11:14:18;;;;;;;9.00;6.00;;;;;;;;;;3367770;42;20096;-60
2022/07/11 11:16:44;;;;;;;9.30;6.38;;;;;;;;;;3369588;42;20080;-59
2022/07/11 11:19:48;;;;;;;8.97;6.17;;;;;;;;;;3369287;42;20156;-57
2022/07/11 11:22:15;;;;;;;9.05;5.82;;;;;;;;;;3368828;42;20084;-61
2022/07/11 11:24:44;;;;;;;10.23;6.55;;;;;;;;;;3369910;42;20114;-58
2022/07/11 11:27:23;;;;;;;8.95;6.10;;;;;;;;;;3361937;42;20605;-58
2022/07/11 11:29:53;;;;;;;10.13;6.22;;;;;;;;;;3369197;42;20080;-61
2022/07/11 11:32:20;;;;;;;11.10;6.60;;;;;;;;;;3359726;42;20098;-59
2022/07/11 11:34:46;;;;;;;12.75;6.63;;;;;;;;;;3357723;42;20131;-58
2022/07/11 11:37:14;;;;;;;10.18;6.75;;;;;;;;;;3367139;42;20092;-59
2022/07/11 11:39:40;;;;;;;9.70;6.40;;;;;;;;;;3358973;42;20095;-58
2022/07/11 11:42:16;;;;;;;9.05;6.15;;;;;;;;;;3372748;42;20079;-59
2022/07/11 11:44:56;;;;;;;10.30;6.30;;;;;;;;;;3361861;42;20092;-64
2022/07/11 11:47:23;;;;;;;8.48;5.82;;;;;;;;;;3355778;42;20080;-59
2022/07/11 11:49:50;;;;;;;9.98;6.10;;;;;;;;;;3359387;42;20088;-58
2022/07/11 11:52:16;;;;;;;9.68;6.05;;;;;;;;;;3374255;42;20098;-60
2022/07/11 11:54:42;;;;;;;9.70;6.30;;;;;;;;;;3359355;42;20131;-61
2022/07/11 11:57:10;;;;;;;12.23;6.00;;;;;;;;;;3356853;42;20178;-59
2022/07/11 11:59:37;;;;;;;10.20;6.38;;;;;;;;;;3357080;42;20139;-62
2022/07/11 12:02:03;;;;;;;9.73;6.18;;;;;;;;;;3364311;42;20091;-59
2022/07/11 12:04:31;;;;;;;8.80;6.30;;;;;;;;;;3347491;42;20107;-60
2022/07/11 12:06:57;;;;;;;10.75;6.47;;;;;;;;;;3359134;42;20099;-61
2022/07/11 12:14:53;;;;;;;11.00;5.88;;;;;;;;;;3351599;42;20099;-59
2022/07/11 12:17:26;;;;;;;10.77;5.80;;;;;;;;;;3356110;42;20079;-62
2022/07/11 12:19:52;;;;;;;9.10;5.97;;;;;;;;;;3367724;42;20131;-60
2022/07/11 12:22:18;;;;;;;8.60;5.83;;;;;;;;;;3367793;42;20095;-60
2022/07/11 12:24:48;;;;;;;9.25;5.90;;;;;;;;;;3367381;42;20092;-62
2022/07/11 12:27:22;;;;;;;9.73;5.82;;;;;;;;;;3351455;42;20090;-62
2022/07/11 12:29:50;;;;;;;9.27;5.82;;;;;;;;;;3358873;42;20192;-62
2022/07/11 12:32:21;;;;;;;8.40;5.32;;;;;;;;;;3367926;42;20096;-60
2022/07/11 12:34:49;;;;;;;9.17;5.60;;;;;;;;;;3367979;42;20107;-63
2022/07/11 12:37:17;;;;;;;23.23;6.78;;;;;;;;;;3367411;42;20150;-63
2022/07/11 12:39:54;;;;;;;11.10;5.80;;;;;;;;;;3358651;42;20139;-57
2022/07/11 12:42:25;;;;;;;9.80;6.05;;;;;;;;;;3354912;42;20105;-58
2022/07/11 12:44:58;;;;;;;10.48;5.88;;;;;;;;;;3367792;42;20137;-60
2022/07/11 12:47:28;;;;;;;8.40;5.60;;;;;;;;;;3367525;42;20581;-59
2022/07/11 12:49:55;;;;;;;9.15;5.47;;;;;;;;;;3367351;42;20401;-59
2022/07/11 12:52:21;;;;;;;7.15;4.57;;;;;;;;;;3358741;42;20115;-58
2022/07/11 12:54:49;;;;;;;8.88;5.00;;;;;;;;;;3367649;42;20100;-58
2022/07/11 12:57:17;;;;;;;7.30;4.75;;;;;;;;;;3368789;42;20094;-58
2022/07/11 12:59:44;;;;;;;9.27;4.80;;;;;;;;;;3371057;42;20111;-60
2022/07/11 13:02:11;;;;;;;8.07;4.80;;;;;;;;;;3368111;42;20573;-58
2022/07/11 13:04:48;;;;;;;8.57;4.82;;;;;;;;;;3351190;42;20112;-58
2022/07/11 13:10:21;;;;;;;8.00;4.80;;;;;;;;;;3366957;42;20452;-61
2022/07/11 13:12:49;;;;;;;8.87;4.70;;;;;;;;;;3358685;42;20162;-60
2022/07/11 13:15:17;;;;;;;7.85;4.65;;;;;;;;;;3366693;42;20084;-59
2022/07/11 13:17:50;;;;;;;8.20;4.80;;;;;;;;;;3354595;42;20096;-57
2022/07/11 13:20:19;;;;;;;7.82;4.78;;;;;;;;;;3361133;42;20569;-59
2022/07/11 13:22:46;;;;;;;8.70;4.90;;;;;;;;;;3368342;42;20134;-54
2022/07/11 13:25:13;;;;;;;7.37;4.67;;;;;;;;;;3367378;42;20096;-57
2022/07/11 13:27:43;;;;;;;8.75;4.70;;;;;;;;;;3354525;42;20132;-58
2022/07/11 13:30:16;;;;;;;8.45;4.88;;;;;;;;;;3354008;42;20155;-59
2022/07/11 13:32:43;;;;;;;7.32;4.72;;;;;;;;;;3360771;42;20103;-57
2022/07/11 13:35:09;;;;;;;8.02;4.43;;;;;;;;;;3358068;42;20498;-59
2022/07/11 13:37:37;;;;;;;6.97;4.30;;;;;;;;;;3367125;42;20542;-57
2022/07/11 13:40:05;;;;;;;9.27;5.05;;;;;;;;;;3367004;42;20087;-58
2022/07/11 13:42:32;;;;;;;7.85;5.10;;;;;;;;;;3367210;42;20091;-58
2022/07/11 13:44:59;;;;;;;7.20;4.70;;;;;;;;;;3366737;42;20131;-55
2022/07/11 13:47:25;;;;;;;8.03;5.00;;;;;;;;;;3353555;42;20104;-57
2022/07/11 13:49:51;;;;;;;7.60;4.88;;;;;;;;;;3367077;42;20170;-57
2022/07/11 13:52:17;;;;;;;7.93;4.90;;;;;;;;;;3358308;42;20174;-56
2022/07/11 13:54:43;;;;;;;9.90;5.72;;;;;;;;;;3366729;42;20096;-56
2022/07/11 13:57:09;;;;;;;8.43;5.15;;;;;;;;;;3366958;42;20558;-58
2022/07/11 13:59:35;;;;;;;9.17;5.40;;;;;;;;;;3346610;42;20575;-57
2022/07/11 14:02:03;;;;;;;8.30;5.38;;;;;;;;;;3366675;42;20111;-58
2022/07/11 14:04:29;;;;;;;8.35;5.47;;;;;;;;;;3366977;42;20087;-58
2022/07/11 14:06:55;;;;;;;7.93;5.35;;;;;;;;;;3366605;42;20079;-58
2022/07/11 14:09:21;;;;;;;11.13;5.68;;;;;;;;;;3366272;42;20087;-61
2022/07/11 14:11:47;;;;;;;9.17;5.83;;;;;;;;;;3358064;42;20159;-61
2022/07/11 14:14:13;;;;;;;9.45;5.90;;;;;;;;;;3353983;42;20594;-58
2022/07/11 14:16:39;;;;;;;8.68;5.97;;;;;;;;;;3350756;42;20076;-53
2022/07/11 14:19:07;;;;;;;9.05;6.53;;;;;;;;;;3358246;42;20153;-57
2022/07/11 14:21:34;;;;;;;9.15;6.32;;;;;;;;;;3358119;42;20084;-56
2022/07/11 14:24:00;;;;;;;10.47;6.27;;;;;;;;;;3366675;42;20153;-57
2022/07/11 14:26:26;;;;;;;11.30;6.60;;;;;;;;;;3366670;42;20087;-57
2022/07/11 14:28:52;;;;;;;10.50;6.53;;;;;;;;;;3357979;42;20094;-58
2022/07/11 14:31:18;;;;;;;11.05;7.13;;;;;;;;;;3366232;42;20076;-58
2022/07/11 14:33:45;;;;;;;10.45;6.88;;;;;;;;;;3357683;42;20703;-57
2022/07/11 14:36:10;;;;;;;9.70;6.40;;;;;;;;;;3357945;42;20651;-57
2022/07/11 14:38:36;;;;;;;9.93;6.65;;;;;;;;;;3366629;42;20134;-61
2022/07/11 14:41:03;;;;;;;12.85;7.25;;;;;;;;;;3366388;42;20076;-57
2022/07/11 14:43:29;;;;;;;10.38;7.20;;;;;;;;;;3366716;42;20091;-56
2022/07/11 14:45:55;;;;;;;11.07;7.18;;;;;;;;;;3366367;42;20079;-58
2022/07/11 14:48:22;;;;;;;12.03;7.67;;;;;;;;;;3366324;42;20856;-57
2022/07/11 14:50:48;;;;;;;10.93;7.15;;;;;;;;;;3366326;42;20080;-56